North Spring Valley, Nevada Weather observations

Data are for 10 minute period ending at time listed.
 Day   Time   Solar   Ave.   Ave.  Ave.  Vector  Max.   Baro.   Total    
  of    of     Rad.   Air    Rel.  Wind   Wind   Wind  Press.  Precip.   
Year   Day            Temp.  Hum.  Speed  Dir.   Gust                    
2014   (PST)  Kw/m2    F      %     mph   deg.    mph    mb.     in.     
-------------------------------------------------------------------------
 352   12:20   0.56   40.2    57    5.6   127    10.8   828.2    0.00 
 352   12:30   0.51   40.6    56    4.4   131    10.6   828.2    0.00 
 352   12:40   0.52   41.1    54    4.4   160     9.1   828.1    0.00 
 352   12:50   0.41   41.2    53    4.2   158     7.0   828.1    0.00 
 352   13:00   0.49   40.7    54    5.4   143     8.6   828.1    0.00 
 352   13:10   0.51   41.1    54    5.1   135     8.0   828.1    0.00 
 352   13:20   0.50   41.7    53    5.0   141     8.8   828.1    0.00 
 352   13:30   0.48   42.1    52    5.3   139     9.2   828.1    0.00 
 352   13:40   0.29   41.5    53    5.0   159     8.1   828.1    0.00 
 352   13:50   0.33   41.1    53    4.8   140     7.5   828.1    0.00 
 352   14:00   0.29   41.6    50    5.2   167     8.7   828.2    0.00 
 352   14:10   0.26   40.7    53    5.4   133     8.0   828.2    0.00 
 352   14:20   0.21   41.2    51    4.8   138     7.6   828.3    0.00 
 352   14:30   0.08   39.7    54    3.8   146     5.9   828.4    0.00 
 352   14:40   0.07   39.0    57    3.1   148     4.7   828.4    0.00 
 352   14:50   0.07   38.7    60    3.6   144     5.6   828.4    0.00 
 352   15:00   0.13   38.8    60    4.2   144     5.5   828.5    0.00 
 352   15:10   0.07   38.6    60    3.2   163     4.7   828.5    0.00 
 352   15:20   0.05   38.0    61    1.8   163     3.5   828.5    0.00 
 352   15:30   0.04   37.6    61    0.1   174     0.9   828.6    0.00 
 352   15:40   0.03   37.3    62    1.6   117     3.4   828.6    0.00 
 352   15:50   0.02   36.7    62    2.5   135     3.3   828.5    0.00 
 352   16:00   0.02   36.7    62    1.8   193     2.1   828.5    0.00 
 352   16:10   0.01   36.7    61    2.1   170     2.9   828.6    0.00 
 352   16:20   0.01   36.9    60    3.6   187     5.1   828.6    0.00 
 352   16:30   0.00   37.0    59    2.8   187     4.0   828.6    0.00 
 352   16:40   0.00   36.9    60    2.3   203     3.4   828.6    0.00 
 352   16:50   0.00   35.0    64    4.2   253     5.0   828.7    0.00 
 352   17:00   0.00   34.6    66    2.5   235     3.1   828.6    0.00 
 352   17:10   0.00   34.3    67    3.7   256     4.9   828.6    0.00 
 352   17:20   0.00   33.5    69    3.8   247     4.6   828.6    0.00 
 352   17:30   0.00   33.0    68    4.1   227     4.5   828.6    0.00 
 352   17:40   0.00   32.9    68    3.6   241     4.7   828.6    0.00 
 352   17:50   0.00   31.0    72    5.1   273     5.6   828.7    0.00 
 352   18:00   0.00   29.7    73    5.4   262     5.8   828.9    0.00 
 352   18:10   0.00   29.0    74    5.5   258     5.8   829.0    0.00 
 352   18:20   0.00   28.6    74    4.8   259     5.7   829.0    0.00 
 352   18:30   0.00   28.2    73    3.4   273     6.2   829.2    0.00 
 352   18:40   0.00   29.2    70    1.5   350     4.7   829.3    0.00 
 352   18:50   0.00   27.8    72    1.9   312     3.1   829.3    0.00 
 352   19:00   0.00   28.2    72    1.5   327     2.6   829.4    0.00 
 352   19:10   0.00   29.5    70    1.4   345     2.9   829.6    0.00 
 352   19:20   0.00   28.2    69    4.0   324     5.2   829.6    0.00 
 352   19:30   0.00   27.3    73    2.7   271     4.0   829.7    0.00 
 352   19:40   0.00   28.4    71    1.1   292     5.6   829.8    0.00 
 352   19:50   0.00   26.7    74    2.6   247     5.8   829.9    0.00 
 352   20:00   0.00   26.0    75    2.9   309     5.2   829.9    0.00 
 352   20:10   0.00   25.0    78    4.0   278     6.4   829.9    0.00 
 352   20:20   0.00   26.1    77    3.3   268     5.4   829.9    0.00 
 352   20:30   0.00   25.3    77    2.8   293     4.4   830.0    0.00 
 352   20:40   0.00   25.9    74    1.8   329     3.9   830.0    0.00 
 352   20:50   0.00   26.4    75    2.6   224     6.1   830.2    0.00 
 352   21:00   0.00   25.7    74    0.7   152     1.9   830.1    0.00 
 352   21:10   0.00   25.4    77    0.8   268     2.3   830.1    0.00 
 352   21:20   0.00   25.9    75    1.0   183     2.6   829.9    0.00 
 352   21:30   0.00   25.5    76    1.7   246     2.4   829.9    0.00 
 352   21:40   0.00   22.7    79    2.8   225     4.6   829.8    0.00 
 352   21:50   0.00   22.7    82    2.2   192     3.6   829.8    0.00 
 352   22:00   0.00   21.5    82    2.6   148     3.5   829.9    0.00 
 352   22:10   0.00   21.6    86    2.7   222     3.7   830.0    0.00 
 352   22:20   0.00   20.6    82    1.4   118     3.9   830.1    0.00 
 352   22:30   0.00   19.8    87    3.1   293     5.1   830.2    0.00 
 352   22:40   0.00   21.0    87    3.5   285     4.3   830.2    0.00 
 352   22:50   0.00   20.7    81    2.5   320     4.7   830.3    0.00 
 352   23:00   0.00   16.4    84    1.5    58     3.0   830.4    0.00 
 352   23:10   0.00   15.7    88    2.7   284     4.1   830.5    0.00 
 352   23:20   0.00   17.6    89    3.6   225     5.2   830.5    0.00 
 352   23:30   0.00   19.1    88    1.4   207     3.4   830.5    0.00 
 352   23:40   0.00   19.5    87    4.0   276     5.9   830.5    0.00 
 352   23:50   0.00   19.1    87    4.7   265     5.6   830.5    0.00 
 353    0:00   0.00   19.5    89    4.3   258     5.9   830.3    0.00 
 353    0:10   0.00   20.6    88    4.6   274     5.3   830.3    0.00 
 353    0:20   0.00   22.2    87    4.0   264     5.7   830.2    0.00 
 353    0:30   0.00   22.8    85    1.8   251     3.4   830.2    0.00 
 353    0:40   0.00   22.6    84    2.1   275     3.9   830.2    0.00 
 353    0:50   0.00   21.4    86    1.8   220     3.1   830.2    0.00 
 353    1:00   0.00   21.6    87    2.7   220     3.4   830.2    0.00 
 353    1:10   0.00   22.5    87    2.6   196     3.2   830.2    0.00 
 353    1:20   0.00   24.2    84    1.5   176     3.6   830.2    0.00 
 353    1:30   0.00   20.1    79    1.9    63     4.7   830.3    0.00 
 353    1:40   0.00   16.8    86    2.1   173     4.5   830.2    0.00 
 353    1:50   0.00   17.4    90    1.3   238     3.4   830.3    0.00 
 353    2:00   0.00   17.0    88    2.0     8     3.7   830.4    0.00 
 353    2:10   0.00   16.5    90    1.0   305     2.0   830.4    0.00 
 353    2:20   0.00   17.9    89    3.1   275     5.6   830.4    0.00 
 353    2:30   0.00   17.9    90    2.5   310     4.9   830.4    0.00 
 353    2:40   0.00   18.3    90    3.2   292     5.3   830.3    0.00 
 353    2:50   0.00   18.4    90    4.0   268     5.2   830.3    0.00 
 353    3:00   0.00   19.1    90    2.4   254     4.0   830.2    0.00 
 353    3:10   0.00   17.5    88    2.0     5     3.9   830.2    0.00 
 353    3:20   0.00   17.9    91    3.4   278     4.5   830.2    0.00 
 353    3:30   0.00   18.4    91    4.7   264     5.4   830.0    0.00 
 353    3:40   0.00   20.2    91    3.5   283     5.2   830.0    0.00 
 353    3:50   0.00   19.6    86    1.8   247     4.8   830.1    0.00 
 353    4:00   0.00   16.5    86    1.5     8     2.6   830.1    0.00 
 353    4:10   0.00   16.5    91    1.8   313     2.9   830.0    0.00 
 353    4:20   0.00   19.1    92    2.3   298     3.5   830.0    0.00 
 353    4:30   0.00   19.0    90    3.2   283     4.5   830.0    0.00 
 353    4:40   0.00   18.7    89    2.3   237     4.1   830.0    0.00 
 353    4:50   0.00   20.0    91    0.3   253     1.9   830.1    0.00 
 353    5:00   0.00   20.5    88    1.1    25     2.6   830.0    0.00 
 353    5:10   0.00   19.4    88    1.3   303     3.1   830.0    0.00 
 353    5:20   0.00   20.0    88    3.9   289     4.9   830.0    0.00 
 353    5:30   0.00   20.6    89    3.9   293     5.0   830.1    0.00 
 353    5:40   0.00   21.6    88    4.8   298     6.6   830.2    0.00 
 353    5:50   0.00   22.8    87    3.2   310     5.0   830.3    0.00 
 353    6:00   0.00   21.9    86    1.4    37     2.6   830.4    0.00 
 353    6:10   0.00   20.8    86    1.5    52     2.5   830.5    0.00 
 353    6:20   0.00   18.9    87    1.1    98     2.5   830.5    0.00 
 353    6:30   0.00   18.6    90    2.7   240     4.8   830.5    0.00 
 353    6:40   0.00   19.2    91    2.6   250     3.9   830.5    0.00 
 353    6:50   0.00   20.1    90    3.2   265     5.0   830.5    0.00 
 353    7:00   0.01   19.2    89    3.5   253     4.5   830.4    0.00 
 353    7:10   0.01   19.2    91    3.2   268     4.2   830.3    0.00 
 353    7:20   0.01   20.5    91    2.9   276     3.7   830.2    0.00 
 353    7:30   0.02   21.2    90    3.2   263     4.7   830.2    0.00 
 353    7:40   0.04   22.2    90    1.9   261     3.0   830.3    0.00 
 353    7:50   0.08   23.5    89    0.2   331     1.5   830.4    0.00 
 353    8:00   0.11   24.4    87    0.9    97     3.4   830.4    0.00 
 353    8:10   0.12   24.4    89    2.6   294     4.4   830.4    0.00 
 353    8:20   0.13   26.9    84    1.9    11     3.8   830.4    0.00 
 353    8:30   0.14   26.6    84    3.3    52     4.7   830.5    0.00 
 353    8:40   0.17   25.8    84    2.5    61     3.9   830.5    0.00 
 353    8:50   0.19   25.8    84    1.8    45     2.8   830.5    0.00 
 353    9:00   0.22   27.1    83    2.0    18     3.3   830.5    0.00 
 353    9:10   0.18   27.4    82    2.4     8     3.5   830.4    0.00 
 353    9:20   0.19   27.9    82    2.4     9     3.9   830.5    0.00 
 353    9:30   0.29   29.1    80    1.1    37     3.3   830.4    0.00 
 353    9:40   0.38   32.3    74    0.2   268     2.2   830.4    0.00 
 353    9:50   0.33   32.5    70    2.4   307     4.5   830.5    0.00 
 353   10:00   0.43   33.1    68    2.3   331     5.0   830.4    0.00 
 353   10:10   0.44   33.7    66    2.0   296     4.5   830.1    0.00 
 353   10:20   0.46   35.0    63    3.3   129     7.2   830.0    0.00 
 353   10:30   0.47   35.6    63    5.6   154     9.3   829.7    0.00 
 353   10:40   0.48   37.0    63    8.2   172    11.4   829.6    0.00 
 353   10:50   0.49   38.0    62    7.6   176    11.5   829.4    0.00 
 353   11:00   0.49   38.9    63    9.5   164    13.4   829.2    0.00 
 353   11:10   0.50   39.6    62    8.5   154    13.1   829.1    0.00 
 353   11:20   0.47   39.8    63    8.2   146    12.5   829.1    0.00 
 353   11:30   0.40   39.9    62    9.0   146    12.3   829.1    0.00 
 353   11:40   0.40   41.1    59    8.0   151    12.3   828.9    0.00 
 353   11:50   0.39   42.5    55    8.5   153    13.8   828.8    0.00 
 353   12:00   0.37   42.7    52   11.1   153    16.4   828.7    0.00 
 353   12:10   0.49   43.6    51   11.3   150    18.7   828.5    0.00 

Return to North Spring Valley graphs page.


Western Regional Climate Center,wrcc@dri.edu